Time;durP1;ratioP1;P1;durP2;ratioP2;P2;SDS_P1;SDS_P2;PMS_P1;PMS_P2;Temp;Humidity;BMP_temperature;BMP_pressure;BME280_temperature;BME280_humidity;BME280_pressure;Samples;Min_cycle;Max_cycle;Signal;HPM_P1;HPM_P2
2023/05/12 00:00:16;;;;;;;;;;;13.20;65.20;;;8.68;100.00;95205.38;5020906;28;20009;-51
2023/05/12 00:02:41;;;;;;;;;;;13.20;65.20;;;8.69;100.00;95198.19;5021965;28;19957;-52
2023/05/12 00:05:08;;;;;;;;;;;13.20;65.20;;;8.69;100.00;95203.50;5020650;28;19913;-49
2023/05/12 00:07:35;;;;;;;;;;;13.20;65.20;;;8.69;100.00;95201.66;5021578;28;20320;-51
2023/05/12 00:10:01;;;;;;;;;;;13.20;65.30;;;8.70;100.00;95191.81;5021933;28;19908;-49
2023/05/12 00:12:27;;;;;;;;;;;13.20;65.30;;;8.73;100.00;95193.94;5019238;28;19915;-51
2023/05/12 00:14:53;;;;;;;;;;;13.20;65.30;;;8.74;100.00;95193.69;5023401;28;20426;-52
2023/05/12 00:17:18;;;;;;;;;;;13.30;65.50;;;8.74;100.00;95188.41;5019776;28;22799;-55
2023/05/12 00:19:44;;;;;;;;;;;13.30;65.50;;;8.77;100.00;95195.00;5021952;28;19908;-54
2023/05/12 00:22:10;;;;;;;;;;;13.30;65.50;;;8.76;100.00;95191.56;5021144;28;19952;-49
2023/05/12 00:24:36;;;;;;;;;;;13.30;65.50;;;8.77;100.00;95187.03;5020437;28;19934;-51
2023/05/12 00:27:02;;;;;;;;;;;13.30;65.50;;;8.78;100.00;95189.44;5020453;28;19917;-54
2023/05/12 00:29:28;;;;;;;;;;;13.40;65.50;;;8.80;100.00;95189.97;5016768;28;19917;-54
2023/05/12 00:31:56;;;;;;;;;;;13.40;65.50;;;8.83;100.00;95191.31;5020512;28;19908;-50
2023/05/12 00:34:22;;;;;;;;;;;13.40;65.60;;;8.85;100.00;95189.19;5022428;28;20291;-53
2023/05/12 00:36:48;;;;;;;;;;;13.40;65.60;;;8.86;100.00;95192.66;5022488;28;19909;-51
2023/05/12 00:39:14;;;;;;;;;;;13.40;65.60;;;8.88;100.00;95191.34;5024949;28;19917;-49
2023/05/12 00:41:39;;;;;;;;;;;13.50;65.70;;;8.89;100.00;95186.81;5023309;28;20275;-49
2023/05/12 00:44:05;;;;;;;;;;;13.50;65.60;;;8.93;100.00;95188.69;5019273;28;19909;-55
2023/05/12 00:46:31;;;;;;;;;;;13.50;65.60;;;8.94;100.00;95184.97;5020608;28;20558;-51
2023/05/12 00:48:57;;;;;;;;;;;13.50;65.60;;;8.97;100.00;95184.44;5009819;28;20379;-50
2023/05/12 00:51:25;;;;;;;;;;;13.50;65.70;;;8.98;100.00;95180.72;5020980;28;19920;-55
2023/05/12 00:53:52;;;;;;;;;;;13.50;65.70;;;8.98;100.00;95180.72;5013707;28;19998;-50
2023/05/12 00:56:18;;;;;;;;;;;13.50;65.80;;;8.98;100.00;95183.38;5000019;28;19909;-55
2023/05/12 00:58:45;;;;;;;;;;;13.50;65.80;;;9.01;100.00;95176.75;5022702;28;20036;-49
2023/05/12 01:01:11;;;;;;;;;;;13.50;65.80;;;9.02;100.00;95179.16;5015933;28;19928;-52
2023/05/12 01:03:37;;;;;;;;;;;13.60;65.80;;;9.04;100.00;95177.00;5027456;28;19921;-54
2023/05/12 01:06:37;;;;;;;;;;;13.60;65.80;;;9.04;100.00;95177.00;5027072;28;19909;-57
2023/05/12 01:09:03;;;;;;;;;;;13.60;65.80;;;9.06;100.00;95179.41;5017082;28;20001;-56
2023/05/12 01:11:29;;;;;;;;;;;13.60;65.90;;;9.10;100.00;95174.38;5021166;28;19917;-55
2023/05/12 01:13:54;;;;;;;;;;;13.60;65.80;;;9.11;100.00;95175.94;5021287;28;20428;-52
2023/05/12 01:16:28;;;;;;;;;;;13.70;65.90;;;9.11;100.00;95167.97;5015606;28;19915;-59
2023/05/12 01:18:55;;;;;;;;;;;13.70;65.90;;;9.10;100.00;95171.72;5010166;28;19913;-55
2023/05/12 01:21:21;;;;;;;;;;;13.70;65.90;;;9.08;100.00;95169.28;5014310;28;19913;-56
2023/05/12 01:24:05;;;;;;;;;;;13.70;65.90;;;9.09;100.00;95159.47;5015265;28;20401;-53
2023/05/12 01:26:32;;;;;;;;;;;13.70;65.80;;;9.10;100.00;95158.41;4998061;28;19920;-53
2023/05/12 01:29:01;;;;;;;;;;;13.70;65.80;;;9.09;100.00;95160.28;5024049;28;19916;-52
2023/05/12 01:31:28;;;;;;;;;;;13.70;65.80;;;9.07;100.00;95161.59;5029501;28;19912;-57
2023/05/12 01:33:54;;;;;;;;;;;13.70;65.80;;;9.06;100.00;95162.66;4995396;28;19971;-54
2023/05/12 01:36:20;;;;;;;;;;;13.70;65.80;;;9.08;100.00;95160.53;5024501;28;22373;-57
2023/05/12 01:38:45;;;;;;;;;;;13.60;65.80;;;9.07;100.00;95161.59;5028064;28;19913;-56
2023/05/12 01:41:11;;;;;;;;;;;13.60;65.80;;;9.05;100.00;95159.19;5023740;28;19909;-55
2023/05/12 01:43:37;;;;;;;;;;;13.60;65.90;;;9.04;100.00;95155.75;5025569;28;19999;-55
2023/05/12 01:46:03;;;;;;;;;;;13.70;66.00;;;9.04;100.00;95163.72;5023770;28;19956;-55
2023/05/12 01:48:28;;;;;;;;;;;13.60;65.90;;;9.01;100.00;95164.25;5027189;28;20881;-58
2023/05/12 01:50:54;;;;;;;;;;;13.70;66.00;;;9.00;100.00;95157.34;5017975;28;20007;-55
2023/05/12 01:53:20;;;;;;;;;;;13.60;65.90;;;8.99;100.00;95165.56;5025383;28;19944;-53
2023/05/12 01:55:46;;;;;;;;;;;13.60;65.90;;;8.99;100.00;95163.72;5027030;28;19913;-54
2023/05/12 01:58:11;;;;;;;;;;;13.60;65.90;;;9.00;100.00;95167.97;5022986;28;20348;-58
2023/05/12 02:00:37;;;;;;;;;;;13.60;65.90;;;8.98;100.00;95164.78;5019311;28;20621;-54
2023/05/12 02:03:03;;;;;;;;;;;13.60;66.00;;;8.98;100.00;95167.44;5022568;28;19927;-56
2023/05/12 02:05:29;;;;;;;;;;;13.60;66.00;;;8.97;100.00;95171.16;5026689;28;19959;-57
2023/05/12 02:07:54;;;;;;;;;;;13.60;66.00;;;9.00;100.00;95169.84;5019012;28;19909;-59
2023/05/12 02:10:20;;;;;;;;;;;13.60;66.10;;;9.01;100.00;95171.44;5023133;28;19917;-52
2023/05/12 02:12:46;;;;;;;;;;;13.60;66.20;;;9.02;100.00;95170.34;5023193;28;19931;-53
2023/05/12 02:15:12;;;;;;;;;;;13.60;66.20;;;9.02;100.00;95173.84;5022677;28;19917;-56
2023/05/12 02:17:38;;;;;;;;;;;13.60;66.20;;;9.04;100.00;95173.56;5024577;28;19921;-52
2023/05/12 02:20:04;;;;;;;;;;;13.60;66.20;;;9.04;100.00;95170.91;5022680;28;20394;-56
2023/05/12 02:22:30;;;;;;;;;;;13.70;66.30;;;9.03;100.00;95174.63;5023598;28;19913;-56
2023/05/12 02:24:56;;;;;;;;;;;13.70;66.20;;;9.06;100.00;95168.78;5021326;28;19916;-59
2023/05/12 02:27:22;;;;;;;;;;;13.70;66.20;;;9.06;100.00;95171.44;5021081;28;19908;-56
2023/05/12 02:29:47;;;;;;;;;;;13.70;66.20;;;9.09;100.00;95175.41;5023685;28;19909;-54
2023/05/12 02:32:13;;;;;;;;;;;13.70;66.20;;;9.09;100.00;95170.91;5023365;28;20317;-54
2023/05/12 02:34:39;;;;;;;;;;;13.80;66.30;;;9.10;100.00;95169.06;5023535;28;19952;-54
2023/05/12 02:37:04;;;;;;;;;;;13.80;66.30;;;9.11;100.00;95167.97;5022268;28;19908;-57
2023/05/12 02:39:30;;;;;;;;;;;13.80;66.30;;;9.12;100.00;95170.38;5018952;28;20042;-54
2023/05/12 02:41:56;;;;;;;;;;;13.80;66.30;;;9.13;100.00;95161.34;5022237;28;19915;-53
2023/05/12 02:44:22;;;;;;;;;;;13.80;66.30;;;9.14;100.00;95170.09;5021472;28;19944;-56
2023/05/12 02:46:47;;;;;;;;;;;13.80;66.40;;;9.15;100.00;95166.38;5020962;28;19913;-56
2023/05/12 02:49:13;;;;;;;;;;;13.80;66.40;;;9.16;100.00;95168.00;5018418;28;19909;-55
2023/05/12 02:51:39;;;;;;;;;;;13.80;66.40;;;9.15;100.00;95164.53;5020115;28;19966;-56
2023/05/12 02:54:05;;;;;;;;;;;13.80;66.40;;;9.14;100.00;95168.25;5020955;28;19917;-58
2023/05/12 02:56:31;;;;;;;;;;;13.80;66.40;;;9.15;100.00;95156.56;5024012;28;19913;-58
2023/05/12 02:58:56;;;;;;;;;;;13.80;66.40;;;9.16;100.00;95157.38;5023938;28;19928;-56
2023/05/12 03:01:22;;;;;;;;;;;13.70;66.40;;;9.15;100.00;95161.06;5022655;28;19912;-56
2023/05/12 03:03:48;;;;;;;;;;;13.80;66.50;;;9.17;100.00;95158.94;5021669;28;19916;-58
2023/05/12 03:06:14;;;;;;;;;;;13.80;66.50;;;9.17;100.00;95157.09;5023071;28;19909;-56
2023/05/12 03:08:40;;;;;;;;;;;13.80;67.30;;;9.16;100.00;95160.81;5025640;28;19915;-53
2023/05/12 03:11:05;;;;;;;;;;;13.70;66.60;;;9.17;100.00;95154.41;5022587;28;20298;-54
2023/05/12 03:13:32;;;;;;;;;;;13.80;66.70;;;9.19;100.00;95156.84;5025152;28;19908;-52
2023/05/12 03:16:00;;;;;;;;;;;13.80;66.60;;;9.19;100.00;95154.97;5022263;28;20410;-58
2023/05/12 03:18:27;;;;;;;;;;;13.80;66.70;;;9.22;100.00;95156.31;5023216;28;19920;-58
2023/05/12 03:20:53;;;;;;;;;;;13.80;66.70;;;9.23;100.00;95152.56;5027099;28;19912;-56
2023/05/12 03:23:19;;;;;;;;;;;13.70;66.60;;;9.20;100.00;95155.75;4995216;28;19921;-57
2023/05/12 03:25:44;;;;;;;;;;;13.80;66.80;;;9.18;100.00;95156.03;5021572;28;20301;-56
2023/05/12 03:28:10;;;;;;;;;;;13.80;66.70;;;9.18;100.00;95150.72;5026322;28;19915;-55
2023/05/12 03:30:36;;;;;;;;;;;13.80;66.80;;;9.20;100.00;95155.75;5017706;28;20614;-57
2023/05/12 03:33:02;;;;;;;;;;;13.80;66.70;;;9.19;100.00;95151.50;5026734;28;19923;-57
2023/05/12 03:35:27;;;;;;;;;;;13.80;66.80;;;9.20;100.00;95151.25;5022950;28;20567;-56
2023/05/12 03:37:53;;;;;;;;;;;13.80;66.70;;;9.19;100.00;95146.19;5024665;28;19923;-49
2023/05/12 03:40:19;;;;;;;;;;;13.80;66.80;;;9.16;100.00;95157.38;5020546;28;19970;-53
2023/05/12 03:42:44;;;;;;;;;;;13.80;66.80;;;9.12;100.00;95154.44;5020183;28;20235;-55
2023/05/12 03:45:11;;;;;;;;;;;13.80;66.70;;;9.08;100.00;95153.34;5018960;28;19940;-54
2023/05/12 03:47:37;;;;;;;;;;;13.80;66.70;;;9.11;100.00;95146.72;5022649;28;19913;-50
2023/05/12 03:50:03;;;;;;;;;;;13.80;66.70;;;9.11;100.00;95152.81;5024955;28;19919;-50
2023/05/12 03:52:29;;;;;;;;;;;13.80;66.70;;;9.13;100.00;95149.91;5025955;28;19909;-56
2023/05/12 03:54:54;;;;;;;;;;;13.80;66.70;;;9.12;100.00;95151.78;5023676;28;19915;-53
2023/05/12 03:57:20;;;;;;;;;;;13.70;66.60;;;9.11;100.00;95142.19;5023623;28;19916;-52
2023/05/12 03:59:46;;;;;;;;;;;13.70;66.70;;;9.11;100.00;95149.38;5022905;28;20494;-57
2023/05/12 04:02:11;;;;;;;;;;;13.70;66.70;;;9.10;100.00;95145.94;5023841;28;20402;-58
2023/05/12 04:04:37;;;;;;;;;;;13.70;66.80;;;9.06;100.00;95136.91;5019059;28;19919;-58
2023/05/12 04:07:04;;;;;;;;;;;13.70;66.80;;;9.03;100.00;95134.78;5022977;28;19917;-58
2023/05/12 04:09:32;;;;;;;;;;;13.70;66.80;;;8.99;100.00;95129.19;5023096;28;19909;-55
2023/05/12 04:11:59;;;;;;;;;;;13.70;66.80;;;8.99;100.00;95141.66;5022163;28;19932;-56
2023/05/12 04:14:24;;;;;;;;;;;13.70;66.80;;;9.01;100.00;95143.00;5022848;28;19912;-56
2023/05/12 04:16:50;;;;;;;;;;;13.70;66.90;;;9.03;100.00;95140.88;5021999;28;19931;-56
2023/05/12 04:19:16;;;;;;;;;;;13.70;66.90;;;9.02;100.00;95141.13;5021632;28;19992;-58
2023/05/12 04:21:41;;;;;;;;;;;13.70;66.90;;;9.09;100.00;95140.88;5025990;28;19908;-55
2023/05/12 04:24:07;;;;;;;;;;;13.80;66.90;;;9.11;100.00;95142.19;5024770;28;19913;-55
2023/05/12 04:26:33;;;;;;;;;;;13.80;66.90;;;9.14;100.00;95143.53;5023601;28;19916;-56
2023/05/12 04:28:59;;;;;;;;;;;13.80;66.80;;;9.14;100.00;95151.50;5019121;28;19922;-52
2023/05/12 04:31:24;;;;;;;;;;;13.90;66.90;;;9.11;100.00;95152.03;5026017;28;19916;-54
2023/05/12 04:33:50;;;;;;;;;;;13.90;66.80;;;9.11;100.00;95152.81;5022649;28;20060;-57
2023/05/12 04:36:16;;;;;;;;;;;13.90;66.70;;;9.14;100.00;95156.81;5020054;28;19962;-54
2023/05/12 04:38:42;;;;;;;;;;;14.00;66.70;;;9.17;100.00;95158.94;5023810;28;19927;-55
2023/05/12 04:41:10;;;;;;;;;;;14.00;66.70;;;9.21;100.00;95157.34;5023574;28;26787;-55
2023/05/12 04:43:35;;;;;;;;;;;14.00;66.70;;;9.26;100.00;95154.69;5019856;28;20250;-56
2023/05/12 04:46:01;;;;;;;;;;;14.00;67.40;;;9.32;100.00;95160.81;5020180;28;20421;-57
2023/05/12 04:48:30;;;;;;;;;;;14.10;66.70;;;9.33;100.00;95157.09;5019465;28;19912;-56
2023/05/12 04:50:59;;;;;;;;;;;14.10;66.70;;;9.38;100.00;95163.19;5021978;28;20394;-56
2023/05/12 04:53:28;;;;;;;;;;;14.20;66.60;;;9.44;100.00;95169.31;5020545;28;19916;-56
2023/05/12 04:55:55;;;;;;;;;;;14.30;66.70;;;9.50;100.00;95165.59;5022743;28;20042;-55
2023/05/12 04:58:21;;;;;;;;;;;14.30;66.60;;;9.56;100.00;95163.69;5019096;28;19913;-54
2023/05/12 05:00:46;;;;;;;;;;;14.50;66.60;;;9.66;100.00;95164.50;5026813;28;19958;-55
2023/05/12 05:03:12;;;;;;;;;;;14.60;66.50;;;9.75;100.00;95163.97;5019135;28;20454;-54
2023/05/12 05:05:38;;;;;;;;;;;14.70;66.40;;;9.78;100.00;95172.19;5026840;28;19916;-57
2023/05/12 05:08:04;;;;;;;;;;;14.80;66.40;;;9.84;100.00;95180.94;5020068;28;19909;-53
2023/05/12 05:10:29;;;;;;;;;;;14.90;66.20;;;9.93;100.00;95174.00;5025866;28;20000;-56
2023/05/12 05:12:55;;;;;;;;;;;15.00;66.00;;;10.07;100.00;95166.28;5024719;28;20063;-58
2023/05/12 05:15:21;;;;;;;;;;;15.20;66.00;;;10.17;100.00;95167.03;5027855;28;20363;-52
2023/05/12 05:17:48;;;;;;;;;;;15.30;65.90;;;10.23;100.00;95169.69;5023043;28;19913;-54
2023/05/12 05:20:14;;;;;;;;;;;15.50;65.80;;;10.40;100.00;95176.31;5026183;28;19948;-55
2023/05/12 05:22:40;;;;;;;;;;;15.60;65.50;;;10.50;100.00;95177.31;5022027;28;19916;-53
2023/05/12 05:25:07;;;;;;;;;;;15.70;65.50;;;10.56;100.00;95176.22;5024013;28;19916;-53
2023/05/12 05:27:33;;;;;;;;;;;15.90;65.40;;;10.49;100.00;95179.19;5022374;28;19912;-57
2023/05/12 05:29:58;;;;;;;;;;;15.90;65.20;;;10.61;100.00;95179.66;5025440;28;20287;-52
2023/05/12 05:32:24;;;;;;;;;;;16.00;65.10;;;10.72;100.00;95187.59;5022101;28;19912;-56
2023/05/12 05:34:50;;;;;;;;;;;16.10;65.10;;;10.81;100.00;95177.94;5020914;28;19912;-58
2023/05/12 05:37:17;;;;;;;;;;;16.10;64.90;;;10.84;100.00;95183.53;5020015;28;19956;-56
2023/05/12 05:39:43;;;;;;;;;;;16.20;64.80;;;10.90;100.00;95181.63;5026558;28;19952;-57
2023/05/12 05:42:09;;;;;;;;;;;16.30;64.60;;;10.94;100.00;95181.91;5020820;28;20031;-56
2023/05/12 05:44:35;;;;;;;;;;;16.30;64.50;;;11.05;100.00;95178.88;5027539;28;20297;-58
2023/05/12 05:47:01;;;;;;;;;;;16.40;64.30;;;11.10;100.00;95181.50;5020527;28;19955;-56
2023/05/12 05:49:27;;;;;;;;;;;16.50;64.20;;;11.19;100.00;95181.72;5025348;28;19951;-58
2023/05/12 05:51:53;;;;;;;;;;;16.60;64.00;;;11.32;100.00;95178.41;5019285;28;19956;-55
2023/05/12 05:54:19;;;;;;;;;;;16.80;64.00;;;11.45;99.65;95182.31;5022564;28;19923;-53
2023/05/12 05:56:45;;;;;;;;;;;16.90;63.80;;;11.55;98.29;95184.09;5019784;28;20263;-53
2023/05/12 05:59:13;;;;;;;;;;;17.10;63.70;;;11.67;95.85;95181.06;5020092;28;20359;-54
2023/05/12 06:01:38;;;;;;;;;;;17.20;63.50;;;11.79;95.28;95189.50;5027424;28;19909;-53
2023/05/12 06:04:04;;;;;;;;;;;17.30;63.20;;;11.93;95.63;95187.78;5029170;28;19970;-54
2023/05/12 06:06:30;;;;;;;;;;;17.50;63.10;;;12.08;94.27;95189.50;5009397;28;19917;-52
2023/05/12 06:08:56;;;;;;;;;;;17.60;63.00;;;12.20;93.58;95184.56;5027804;28;19999;-51
2023/05/12 06:11:22;;;;;;;;;;;17.80;62.90;;;12.30;92.14;95189.00;5028464;28;19923;-53
2023/05/12 06:13:47;;;;;;;;;;;18.00;62.70;;;12.27;90.68;95187.69;5023503;28;19912;-55
2023/05/12 06:16:13;;;;;;;;;;;18.10;62.40;;;12.46;90.88;95189.59;5028440;28;20271;-55
2023/05/12 06:18:39;;;;;;;;;;;18.30;62.10;;;12.60;91.18;95192.41;5023016;28;19913;-54
2023/05/12 06:21:05;;;;;;;;;;;18.30;61.90;;;12.27;88.01;95193.03;5009729;28;19928;-55
2023/05/12 06:23:30;;;;;;;;;;;18.50;61.80;;;11.91;89.17;95194.47;5023121;28;19958;-56
2023/05/12 06:25:56;;;;;;;;;;;18.50;61.30;;;12.15;90.89;95197.97;5022147;28;19990;-53
2023/05/12 06:28:22;;;;;;;;;;;18.60;61.00;;;12.32;89.25;95188.72;5025729;28;20294;-49
2023/05/12 06:30:47;;;;;;;;;;;18.70;60.90;;;12.43;88.47;95188.28;5026357;28;19909;-55
2023/05/12 06:33:13;;;;;;;;;;;18.80;60.80;;;12.53;88.10;95197.28;5020577;28;19928;-52
2023/05/12 06:35:39;;;;;;;;;;;18.90;60.80;;;12.85;88.95;95197.41;5022158;28;20445;-52
2023/05/12 06:38:05;;;;;;;;;;;19.00;61.40;;;13.07;88.14;95202.19;5029121;28;19919;-55
2023/05/12 06:40:31;;;;;;;;;;;19.10;60.50;;;13.08;82.99;95198.41;5021733;28;20003;-50
2023/05/12 06:42:57;;;;;;;;;;;19.20;60.40;;;13.16;84.16;95196.97;5021972;28;19913;-49
2023/05/12 06:45:22;;;;;;;;;;;19.30;60.20;;;13.16;83.47;95202.31;5025460;28;19919;-51
2023/05/12 06:47:49;;;;;;;;;;;19.30;60.00;;;13.10;83.92;95196.25;5023364;28;19966;-50
2023/05/12 06:50:15;;;;;;;;;;;19.20;59.80;;;13.18;82.03;95200.16;5024812;28;20352;-51
2023/05/12 06:52:43;;;;;;;;;;;19.20;59.80;;;13.24;83.35;95200.88;5023480;28;20011;-53
2023/05/12 06:55:09;;;;;;;;;;;19.10;59.80;;;13.34;82.52;95187.38;5021593;28;20270;-49
2023/05/12 06:57:35;;;;;;;;;;;19.10;59.80;;;13.41;84.57;95201.16;5026485;28;19908;-53
2023/05/12 07:00:02;;;;;;;;;;;19.10;59.80;;;13.52;84.45;95197.25;5002721;28;20410;-50
2023/05/12 07:02:29;;;;;;;;;;;19.30;59.70;;;13.88;84.48;95194.78;5020824;28;20144;-48
2023/05/12 07:04:55;;;;;;;;;;;19.70;59.70;;;14.08;82.87;95195.50;5024552;28;19923;-48
2023/05/12 07:07:21;;;;;;;;;;;20.00;59.50;;;14.40;83.01;95196.53;5026178;28;19954;-54
2023/05/12 07:09:46;;;;;;;;;;;20.40;59.40;;;14.38;78.52;95188.78;5017551;28;20019;-48
2023/05/12 07:12:12;;;;;;;;;;;20.70;59.20;;;14.23;79.96;95197.13;5020129;28;22852;-55
2023/05/12 07:14:38;;;;;;;;;;;20.70;58.80;;;14.45;78.75;95189.19;5020570;28;19912;-55
2023/05/12 07:17:05;;;;;;;;;;;20.80;58.50;;;14.55;77.80;95196.25;5019756;28;19908;-52
2023/05/12 07:19:31;;;;;;;;;;;20.70;58.50;;;14.73;76.43;95192.69;5017865;28;19920;-51
2023/05/12 07:21:57;;;;;;;;;;;20.80;58.40;;;14.95;78.13;95196.53;5022264;28;19912;-50
2023/05/12 07:24:23;;;;;;;;;;;21.20;58.10;;;15.12;69.79;95196.66;5019860;28;19915;-53
2023/05/12 07:26:49;;;;;;;;;;;21.60;57.70;;;15.35;70.50;95194.00;5022176;28;19917;-52
2023/05/12 07:29:16;;;;;;;;;;;22.00;57.20;;;15.28;68.41;95195.22;5021444;28;19920;-49
2023/05/12 07:31:42;;;;;;;;;;;21.90;56.90;;;15.09;69.23;95191.91;5020971;28;19916;-50
2023/05/12 07:34:08;;;;;;;;;;;21.70;56.70;;;14.90;71.37;95192.03;5020053;28;20302;-50
2023/05/12 07:36:34;;;;;;;;;;;21.50;56.60;;;15.03;71.41;95191.22;5022536;28;19995;-54
2023/05/12 07:38:59;;;;;;;;;;;21.40;56.30;;;15.40;70.88;95191.22;5020644;28;19923;-50
2023/05/12 07:41:25;;;;;;;;;;;21.60;56.30;;;15.13;70.49;95190.19;5020879;28;20141;-48
2023/05/12 07:43:51;;;;;;;;;;;21.50;56.30;;;15.34;70.33;95187.84;5019498;28;20382;-48
2023/05/12 07:46:17;;;;;;;;;;;21.50;56.00;;;15.62;69.47;95185.84;5026284;28;19917;-54
2023/05/12 07:48:42;;;;;;;;;;;21.70;56.00;;;15.89;69.25;95184.94;5017094;28;19916;-48
2023/05/12 07:51:09;;;;;;;;;;;21.90;55.90;;;16.29;65.63;95179.59;5019392;28;19965;-55
2023/05/12 07:53:35;;;;;;;;;;;22.20;55.80;;;16.35;62.70;95183.72;5023894;28;19990;-53
2023/05/12 07:56:01;;;;;;;;;;;22.60;55.70;;;16.46;62.46;95188.84;5024586;28;19948;-55
2023/05/12 07:58:27;;;;;;;;;;;22.80;55.00;;;16.52;61.27;95180.31;5020314;28;20320;-53
2023/05/12 08:00:53;;;;;;;;;;;23.20;54.50;;;16.64;59.63;95177.03;5020603;28;19989;-50
2023/05/12 08:03:19;;;;;;;;;;;23.60;54.00;;;16.87;62.20;95172.34;5021504;28;19985;-54
2023/05/12 08:05:45;;;;;;;;;;;23.90;53.40;;;16.73;62.19;95177.81;5025321;28;19915;-55
2023/05/12 08:08:15;;;;;;;;;;;24.10;53.00;;;17.03;60.33;95180.78;5021533;28;19909;-55
2023/05/12 08:10:44;;;;;;;;;;;24.50;52.50;;;16.41;61.74;95181.69;5021836;28;19952;-52
2023/05/12 08:13:10;;;;;;;;;;;24.60;52.10;;;16.84;63.59;95183.75;5022042;28;19909;-48
2023/05/12 08:15:36;;;;;;;;;;;25.00;51.60;;;17.02;65.24;95177.28;5024607;28;22442;-52
2023/05/12 08:18:02;;;;;;;;;;;25.10;51.40;;;17.44;64.17;95176.81;5021010;28;20311;-50
2023/05/12 08:20:28;;;;;;;;;;;25.20;51.20;;;17.87;61.65;95184.88;5019167;28;20023;-49
2023/05/12 08:22:54;;;;;;;;;;;25.40;51.00;;;17.99;61.29;95181.53;5021843;28;19999;-56
2023/05/12 08:25:19;;;;;;;;;;;25.60;50.90;;;18.17;60.58;95179.56;5025619;28;19987;-48
2023/05/12 08:27:45;;;;;;;;;;;25.70;50.60;;;18.06;58.49;95176.44;5004626;28;19908;-48
2023/05/12 08:30:11;;;;;;;;;;;25.80;50.40;;;17.96;58.92;95182.19;5024621;28;19960;-52
2023/05/12 08:32:37;;;;;;;;;;;25.70;50.20;;;18.00;58.50;95180.41;5022435;28;20363;-52
2023/05/12 08:35:04;;;;;;;;;;;25.60;50.10;;;18.32;57.81;95179.03;5001550;28;19913;-53
2023/05/12 08:37:31;;;;;;;;;;;25.80;50.20;;;18.78;56.82;95180.13;5018097;28;20318;-48
2023/05/12 08:39:57;;;;;;;;;;;26.00;50.20;;;18.86;57.48;95179.25;5003261;28;20007;-54
2023/05/12 08:42:54;;;;;;;;;;;26.30;49.90;;;18.57;56.54;95177.34;5019386;28;20050;-50
2023/05/12 08:45:22;;;;;;;;;;;26.60;49.30;;;18.80;54.91;95179.78;4999135;28;20004;-51
2023/05/12 08:47:50;;;;;;;;;;;26.70;48.80;;;19.04;57.45;95184.56;5020554;28;19909;-49
2023/05/12 08:50:20;;;;;;;;;;;26.90;48.40;;;19.28;56.12;95176.63;5023776;28;19941;-49
2023/05/12 08:52:47;;;;;;;;;;;27.10;48.40;;;19.47;54.80;95178.84;5014110;28;19991;-51
2023/05/12 08:55:14;;;;;;;;;;;27.40;48.10;;;19.79;54.04;95181.94;5022694;28;19970;-48
2023/05/12 08:57:44;;;;;;;;;;;27.60;47.80;;;19.68;52.73;95181.56;5010488;28;20441;-49
2023/05/12 09:00:11;;;;;;;;;;;27.60;47.70;;;19.70;52.33;95184.72;4996692;28;20290;-51
2023/05/12 09:02:41;;;;;;;;;;;27.50;47.70;;;19.94;52.99;95189.41;5000357;28;20154;-55
2023/05/12 09:05:10;;;;;;;;;;;27.80;47.40;;;20.13;52.02;95185.41;5019370;28;20322;-56
2023/05/12 09:07:43;;;;;;;;;;;28.10;47.10;;;20.38;50.09;95186.25;5003592;28;19917;-53
2023/05/12 09:10:18;;;;;;;;;;;28.40;46.90;;;20.48;50.36;95185.78;5022530;28;19927;-56
2023/05/12 09:12:48;;;;;;;;;;;28.60;46.20;;;19.26;51.55;95178.06;5018081;28;20082;-50
2023/05/12 09:15:26;;;;;;;;;;;28.70;45.90;;;19.06;51.58;95188.53;5017579;28;20061;-58
2023/05/12 09:17:52;;;;;;;;;;;28.60;45.40;;;18.94;51.33;95183.03;5020165;28;20278;-51
2023/05/12 09:20:18;;;;;;;;;;;28.10;45.50;;;17.51;53.31;95177.91;4999005;28;19913;-50
2023/05/12 09:22:43;;;;;;;;;;;27.60;45.50;;;17.12;55.36;95178.88;5020460;28;19915;-54
2023/05/12 09:25:18;;;;;;;;;;;26.90;46.20;;;17.61;53.15;95189.47;5021178;28;19916;-48
2023/05/12 09:27:52;;;;;;;;;;;26.50;45.80;;;18.15;51.98;95187.97;5022087;28;19915;-52
2023/05/12 09:30:30;;;;;;;;;;;26.60;45.60;;;18.59;51.03;95179.72;5019976;28;19912;-51
2023/05/12 09:33:10;;;;;;;;;;;26.70;45.60;;;18.74;51.58;95173.81;5019395;28;20007;-55
2023/05/12 09:35:44;;;;;;;;;;;26.70;45.40;;;18.99;50.57;95174.75;4994153;28;20310;-51
2023/05/12 09:38:12;;;;;;;;;;;26.90;45.00;;;19.38;50.17;95173.50;5021185;28;19913;-48
2023/05/12 09:40:39;;;;;;;;;;;27.20;45.50;;;19.74;48.92;95176.72;5024419;28;19919;-50
2023/05/12 09:43:06;;;;;;;;;;;27.50;44.50;;;19.91;48.77;95159.56;5019553;28;19916;-51
2023/05/12 09:45:37;;;;;;;;;;;27.70;44.10;;;19.96;51.01;95160.16;5002204;28;19916;-57
2023/05/12 09:48:11;;;;;;;;;;;28.00;43.70;;;20.38;51.32;95165.38;5012634;28;19950;-54
2023/05/12 09:50:49;;;;;;;;;;;28.20;43.40;;;20.41;50.23;95156.59;5025904;28;19908;-51
2023/05/12 09:53:19;;;;;;;;;;;28.50;43.50;;;20.61;49.26;95171.16;5021257;28;20008;-58
2023/05/12 09:55:48;;;;;;;;;;;28.70;43.20;;;20.93;48.60;95152.41;5020677;28;20012;-51
2023/05/12 09:58:17;;;;;;;;;;;28.90;43.00;;;20.89;46.31;95163.16;5022781;28;19916;-56
2023/05/12 10:00:43;;;;;;;;;;;29.20;42.80;;;21.13;46.52;95164.25;4999938;28;19920;-49
2023/05/12 10:03:16;;;;;;;;;;;29.40;42.40;;;21.20;43.69;95159.81;5018865;28;20330;-55
2023/05/12 10:06:13;;;;;;;;;;;29.70;42.00;;;20.33;43.23;95155.56;5023390;28;19935;-55
2023/05/12 10:09:13;;;;;;;;;;;29.70;41.60;;;19.89;44.06;95170.69;5023788;28;19913;-53
2023/05/12 10:11:40;;;;;;;;;;;29.60;41.20;;;20.31;44.23;95157.84;5022580;28;20291;-52
2023/05/12 10:14:08;;;;;;;;;;;29.50;41.10;;;20.60;43.01;95163.41;5022417;28;19994;-52
2023/05/12 10:16:35;;;;;;;;;;;29.50;41.00;;;20.85;42.91;95156.06;5022116;28;19913;-53
2023/05/12 10:19:03;;;;;;;;;;;29.40;40.90;;;20.95;44.64;95156.38;5027186;28;19913;-52
2023/05/12 10:21:30;;;;;;;;;;;29.40;40.80;;;20.78;43.26;95152.00;5015484;28;19909;-50
2023/05/12 10:23:56;;;;;;;;;;;29.50;40.90;;;20.16;43.37;95147.66;5017174;28;19909;-57
2023/05/12 10:26:23;;;;;;;;;;;29.50;40.50;;;20.30;44.88;95153.53;4996320;28;20364;-50
2023/05/12 10:28:51;;;;;;;;;;;29.50;40.80;;;20.24;44.77;95154.88;5020480;28;19955;-49
2023/05/12 10:31:18;;;;;;;;;;;29.40;40.00;;;20.21;45.58;95154.75;5005424;28;19920;-51
2023/05/12 10:33:54;;;;;;;;;;;29.50;40.00;;;20.05;44.96;95158.13;5024775;28;19961;-51
2023/05/12 10:36:20;;;;;;;;;;;29.50;39.70;;;20.08;45.18;95143.94;5020140;28;20278;-49
2023/05/12 10:38:50;;;;;;;;;;;29.20;39.70;;;20.56;46.67;95149.75;5022348;28;19913;-50
2023/05/12 10:41:28;;;;;;;;;;;29.20;39.40;;;20.59;46.17;95146.38;5022609;28;20095;-49
2023/05/12 10:43:54;;;;;;;;;;;29.40;39.50;;;19.72;43.70;95146.56;5003098;28;19952;-53
2023/05/12 10:46:21;;;;;;;;;;;29.70;39.20;;;19.85;44.23;95132.75;5024386;28;19959;-48
2023/05/12 10:49:22;;;;;;;;;;;29.80;39.00;;;19.75;45.96;95145.91;5022564;28;19995;-48
2023/05/12 10:51:48;;;;;;;;;;;29.90;38.70;;;20.49;43.81;95146.78;5006818;28;20392;-54
2023/05/12 10:54:24;;;;;;;;;;;30.10;38.70;;;20.94;43.06;95140.47;5024199;28;19909;-50
2023/05/12 10:56:51;;;;;;;;;;;30.20;38.70;;;20.77;45.21;95146.91;5019856;28;19913;-48
2023/05/12 10:59:23;;;;;;;;;;;30.20;38.40;;;20.49;45.40;95152.19;5004168;28;19947;-54
2023/05/12 11:01:59;;;;;;;;;;;29.80;38.50;;;19.55;43.78;95142.84;5013667;28;19913;-48
2023/05/12 11:04:41;;;;;;;;;;;29.30;38.70;;;19.32;45.12;95147.81;5020246;28;19928;-47
2023/05/12 11:07:12;;;;;;;;;;;28.70;38.80;;;18.66;46.04;95144.94;5019382;28;19916;-48
2023/05/12 11:09:42;;;;;;;;;;;28.20;38.80;;;17.55;50.27;95160.03;5021817;28;19971;-56
2023/05/12 11:12:10;;;;;;;;;;;27.60;38.60;;;17.85;46.57;95149.38;5022305;28;19909;-47
2023/05/12 11:14:38;;;;;;;;;;;27.10;39.00;;;17.98;47.67;95150.28;5022962;28;19909;-48
2023/05/12 11:17:05;;;;;;;;;;;26.70;39.30;;;18.07;46.13;95145.66;5021333;28;19944;-47